sensor_id;sensor_type;location;lat;lon;timestamp;P1;durP1;ratioP1;P2;durP2;ratioP2
66175;SDS011;52977;44.816;20.538;2023-03-07T00:01:23;24.70;;;10.13;;
66175;SDS011;52977;44.816;20.538;2023-03-07T00:03:54;23.45;;;9.23;;
66175;SDS011;52977;44.816;20.538;2023-03-07T00:06:20;24.55;;;10.30;;
66175;SDS011;52977;44.816;20.538;2023-03-07T00:08:50;28.67;;;10.38;;
66175;SDS011;52977;44.816;20.538;2023-03-07T00:13:44;22.90;;;9.15;;
66175;SDS011;52977;44.816;20.538;2023-03-07T00:16:12;23.25;;;10.20;;
66175;SDS011;52977;44.816;20.538;2023-03-07T00:18:40;24.52;;;8.70;;
66175;SDS011;52977;44.816;20.538;2023-03-07T00:21:11;22.65;;;9.07;;
66175;SDS011;52977;44.816;20.538;2023-03-07T00:23:40;18.67;;;7.70;;
66175;SDS011;52977;44.816;20.538;2023-03-07T00:26:10;19.33;;;8.10;;
66175;SDS011;52977;44.816;20.538;2023-03-07T00:28:40;23.75;;;8.60;;
66175;SDS011;52977;44.816;20.538;2023-03-07T00:31:08;19.15;;;8.75;;
66175;SDS011;52977;44.816;20.538;2023-03-07T00:33:36;20.52;;;8.45;;
66175;SDS011;52977;44.816;20.538;2023-03-07T00:36:04;23.80;;;9.05;;
66175;SDS011;52977;44.816;20.538;2023-03-07T00:38:37;20.52;;;9.48;;
66175;SDS011;52977;44.816;20.538;2023-03-07T00:41:10;21.65;;;8.88;;
66175;SDS011;52977;44.816;20.538;2023-03-07T00:43:39;20.15;;;9.13;;
66175;SDS011;52977;44.816;20.538;2023-03-07T00:46:06;21.88;;;9.07;;
66175;SDS011;52977;44.816;20.538;2023-03-07T00:48:33;21.95;;;10.30;;
66175;SDS011;52977;44.816;20.538;2023-03-07T00:51:01;24.23;;;10.27;;
66175;SDS011;52977;44.816;20.538;2023-03-07T00:53:27;27.13;;;11.00;;
66175;SDS011;52977;44.816;20.538;2023-03-07T00:55:55;28.13;;;11.07;;
66175;SDS011;52977;44.816;20.538;2023-03-07T00:58:26;24.95;;;10.50;;
66175;SDS011;52977;44.816;20.538;2023-03-07T01:00:54;29.90;;;11.57;;
66175;SDS011;52977;44.816;20.538;2023-03-07T01:03:21;26.60;;;10.70;;
66175;SDS011;52977;44.816;20.538;2023-03-07T01:05:48;26.83;;;10.38;;
66175;SDS011;52977;44.816;20.538;2023-03-07T01:08:16;26.00;;;11.88;;
66175;SDS011;52977;44.816;20.538;2023-03-07T01:10:44;21.55;;;10.90;;
66175;SDS011;52977;44.816;20.538;2023-03-07T01:13:12;27.08;;;10.68;;
66175;SDS011;52977;44.816;20.538;2023-03-07T01:15:38;22.48;;;9.40;;
66175;SDS011;52977;44.816;20.538;2023-03-07T01:18:05;22.65;;;9.82;;
66175;SDS011;52977;44.816;20.538;2023-03-07T01:20:33;23.70;;;9.93;;
66175;SDS011;52977;44.816;20.538;2023-03-07T01:23:01;23.48;;;9.95;;
66175;SDS011;52977;44.816;20.538;2023-03-07T01:25:28;32.03;;;12.18;;
66175;SDS011;52977;44.816;20.538;2023-03-07T01:27:54;25.23;;;11.10;;
66175;SDS011;52977;44.816;20.538;2023-03-07T01:30:23;24.58;;;10.77;;
66175;SDS011;52977;44.816;20.538;2023-03-07T01:32:56;23.38;;;11.05;;
66175;SDS011;52977;44.816;20.538;2023-03-07T01:35:24;23.58;;;10.63;;
66175;SDS011;52977;44.816;20.538;2023-03-07T01:37:54;26.85;;;10.00;;
66175;SDS011;52977;44.816;20.538;2023-03-07T01:40:21;23.05;;;9.88;;
66175;SDS011;52977;44.816;20.538;2023-03-07T01:42:50;27.35;;;10.77;;
66175;SDS011;52977;44.816;20.538;2023-03-07T01:47:57;28.77;;;10.75;;
66175;SDS011;52977;44.816;20.538;2023-03-07T01:50:24;22.83;;;9.98;;
66175;SDS011;52977;44.816;20.538;2023-03-07T01:52:53;20.60;;;8.40;;
66175;SDS011;52977;44.816;20.538;2023-03-07T01:55:28;22.13;;;8.68;;
66175;SDS011;52977;44.816;20.538;2023-03-07T01:58:11;18.23;;;8.40;;
66175;SDS011;52977;44.816;20.538;2023-03-07T02:00:40;15.93;;;7.40;;
66175;SDS011;52977;44.816;20.538;2023-03-07T02:03:41;18.65;;;7.22;;
66175;SDS011;52977;44.816;20.538;2023-03-07T02:06:00;15.95;;;7.18;;
66175;SDS011;52977;44.816;20.538;2023-03-07T02:08:32;19.33;;;7.63;;
66175;SDS011;52977;44.816;20.538;2023-03-07T02:11:00;18.67;;;8.98;;
66175;SDS011;52977;44.816;20.538;2023-03-07T02:13:26;19.60;;;8.50;;
66175;SDS011;52977;44.816;20.538;2023-03-07T02:15:53;18.75;;;7.85;;
66175;SDS011;52977;44.816;20.538;2023-03-07T02:18:23;21.42;;;8.43;;
66175;SDS011;52977;44.816;20.538;2023-03-07T02:29:01;23.15;;;8.52;;
66175;SDS011;52977;44.816;20.538;2023-03-07T02:31:29;18.60;;;8.38;;
66175;SDS011;52977;44.816;20.538;2023-03-07T02:33:55;20.98;;;8.77;;
66175;SDS011;52977;44.816;20.538;2023-03-07T02:36:22;24.75;;;9.95;;
66175;SDS011;52977;44.816;20.538;2023-03-07T02:39:12;22.33;;;9.20;;
66175;SDS011;52977;44.816;20.538;2023-03-07T02:41:38;22.27;;;8.38;;
66175;SDS011;52977;44.816;20.538;2023-03-07T02:44:15;20.33;;;8.35;;
66175;SDS011;52977;44.816;20.538;2023-03-07T02:46:41;20.65;;;8.52;;
66175;SDS011;52977;44.816;20.538;2023-03-07T02:49:08;21.00;;;8.27;;
66175;SDS011;52977;44.816;20.538;2023-03-07T02:51:34;20.55;;;8.85;;
66175;SDS011;52977;44.816;20.538;2023-03-07T02:54:01;21.50;;;9.50;;
66175;SDS011;52977;44.816;20.538;2023-03-07T02:56:27;20.05;;;9.15;;
66175;SDS011;52977;44.816;20.538;2023-03-07T02:58:53;21.08;;;8.95;;
66175;SDS011;52977;44.816;20.538;2023-03-07T03:01:19;20.13;;;9.13;;
66175;SDS011;52977;44.816;20.538;2023-03-07T03:03:48;18.88;;;7.72;;
66175;SDS011;52977;44.816;20.538;2023-03-07T03:06:14;16.30;;;7.25;;
66175;SDS011;52977;44.816;20.538;2023-03-07T03:08:40;23.17;;;8.02;;
66175;SDS011;52977;44.816;20.538;2023-03-07T03:11:06;21.63;;;8.35;;
66175;SDS011;52977;44.816;20.538;2023-03-07T03:13:34;16.60;;;7.53;;
66175;SDS011;52977;44.816;20.538;2023-03-07T03:16:01;20.20;;;8.07;;
66175;SDS011;52977;44.816;20.538;2023-03-07T03:18:28;19.27;;;8.35;;
66175;SDS011;52977;44.816;20.538;2023-03-07T03:20:57;21.17;;;8.35;;
66175;SDS011;52977;44.816;20.538;2023-03-07T03:23:25;17.45;;;8.25;;
66175;SDS011;52977;44.816;20.538;2023-03-07T03:25:56;18.70;;;8.60;;
66175;SDS011;52977;44.816;20.538;2023-03-07T03:28:24;20.60;;;8.90;;
66175;SDS011;52977;44.816;20.538;2023-03-07T03:31:00;20.70;;;8.90;;
66175;SDS011;52977;44.816;20.538;2023-03-07T03:33:30;22.98;;;9.65;;
66175;SDS011;52977;44.816;20.538;2023-03-07T03:35:57;23.08;;;9.80;;
66175;SDS011;52977;44.816;20.538;2023-03-07T03:38:24;22.13;;;9.35;;
66175;SDS011;52977;44.816;20.538;2023-03-07T03:40:53;25.88;;;10.27;;
66175;SDS011;52977;44.816;20.538;2023-03-07T03:43:19;21.02;;;9.40;;
66175;SDS011;52977;44.816;20.538;2023-03-07T03:45:55;23.00;;;9.75;;
66175;SDS011;52977;44.816;20.538;2023-03-07T03:48:23;22.95;;;9.63;;
66175;SDS011;52977;44.816;20.538;2023-03-07T03:50:49;21.25;;;9.38;;
66175;SDS011;52977;44.816;20.538;2023-03-07T03:53:15;25.25;;;9.75;;
66175;SDS011;52977;44.816;20.538;2023-03-07T03:55:41;23.95;;;9.70;;
66175;SDS011;52977;44.816;20.538;2023-03-07T03:58:08;22.10;;;9.10;;
66175;SDS011;52977;44.816;20.538;2023-03-07T04:00:35;20.50;;;8.65;;
66175;SDS011;52977;44.816;20.538;2023-03-07T04:03:02;23.23;;;8.98;;
66175;SDS011;52977;44.816;20.538;2023-03-07T04:05:27;21.35;;;9.05;;
66175;SDS011;52977;44.816;20.538;2023-03-07T04:07:54;21.65;;;8.88;;
66175;SDS011;52977;44.816;20.538;2023-03-07T04:10:20;20.75;;;9.38;;
66175;SDS011;52977;44.816;20.538;2023-03-07T04:12:46;19.58;;;8.60;;
66175;SDS011;52977;44.816;20.538;2023-03-07T04:15:12;20.33;;;8.00;;
66175;SDS011;52977;44.816;20.538;2023-03-07T04:17:38;17.63;;;7.75;;
66175;SDS011;52977;44.816;20.538;2023-03-07T04:20:05;19.90;;;8.18;;
66175;SDS011;52977;44.816;20.538;2023-03-07T04:22:35;19.27;;;8.50;;
66175;SDS011;52977;44.816;20.538;2023-03-07T04:25:02;19.80;;;8.32;;
66175;SDS011;52977;44.816;20.538;2023-03-07T04:27:28;21.40;;;8.40;;
66175;SDS011;52977;44.816;20.538;2023-03-07T04:29:56;18.92;;;8.40;;
66175;SDS011;52977;44.816;20.538;2023-03-07T04:32:23;21.08;;;7.97;;
66175;SDS011;52977;44.816;20.538;2023-03-07T04:34:49;22.63;;;9.10;;
66175;SDS011;52977;44.816;20.538;2023-03-07T04:37:15;17.88;;;7.88;;
66175;SDS011;52977;44.816;20.538;2023-03-07T04:39:42;22.42;;;9.07;;
66175;SDS011;52977;44.816;20.538;2023-03-07T04:42:09;20.60;;;8.85;;
66175;SDS011;52977;44.816;20.538;2023-03-07T04:44:36;20.50;;;8.65;;
66175;SDS011;52977;44.816;20.538;2023-03-07T04:47:02;19.75;;;8.15;;
66175;SDS011;52977;44.816;20.538;2023-03-07T04:49:31;22.27;;;8.90;;
66175;SDS011;52977;44.816;20.538;2023-03-07T04:51:58;20.38;;;8.35;;
66175;SDS011;52977;44.816;20.538;2023-03-07T04:54:24;21.17;;;8.25;;
66175;SDS011;52977;44.816;20.538;2023-03-07T04:56:51;20.02;;;8.25;;
66175;SDS011;52977;44.816;20.538;2023-03-07T04:59:18;19.45;;;8.38;;
66175;SDS011;52977;44.816;20.538;2023-03-07T05:01:45;21.90;;;8.50;;
66175;SDS011;52977;44.816;20.538;2023-03-07T05:04:11;23.77;;;8.85;;
66175;SDS011;52977;44.816;20.538;2023-03-07T05:06:38;23.02;;;9.35;;
66175;SDS011;52977;44.816;20.538;2023-03-07T05:09:05;23.27;;;9.43;;
66175;SDS011;52977;44.816;20.538;2023-03-07T05:11:32;24.30;;;9.65;;
66175;SDS011;52977;44.816;20.538;2023-03-07T05:13:58;20.20;;;8.95;;
66175;SDS011;52977;44.816;20.538;2023-03-07T05:16:24;21.48;;;9.18;;
66175;SDS011;52977;44.816;20.538;2023-03-07T05:18:51;16.27;;;7.55;;
66175;SDS011;52977;44.816;20.538;2023-03-07T05:21:17;20.63;;;8.45;;
66175;SDS011;52977;44.816;20.538;2023-03-07T05:23:43;20.23;;;8.73;;
66175;SDS011;52977;44.816;20.538;2023-03-07T05:26:11;18.05;;;8.52;;
66175;SDS011;52977;44.816;20.538;2023-03-07T05:28:37;18.52;;;7.82;;
66175;SDS011;52977;44.816;20.538;2023-03-07T05:31:03;22.70;;;7.97;;
66175;SDS011;52977;44.816;20.538;2023-03-07T05:33:30;18.67;;;8.43;;
66175;SDS011;52977;44.816;20.538;2023-03-07T05:36:00;16.63;;;7.43;;
66175;SDS011;52977;44.816;20.538;2023-03-07T05:38:28;24.25;;;8.38;;
66175;SDS011;52977;44.816;20.538;2023-03-07T05:40:54;24.60;;;8.73;;
66175;SDS011;52977;44.816;20.538;2023-03-07T05:43:20;20.60;;;7.93;;
66175;SDS011;52977;44.816;20.538;2023-03-07T05:45:47;24.13;;;10.60;;
66175;SDS011;52977;44.816;20.538;2023-03-07T05:48:12;25.13;;;11.30;;
66175;SDS011;52977;44.816;20.538;2023-03-07T05:50:38;24.17;;;11.05;;
66175;SDS011;52977;44.816;20.538;2023-03-07T05:53:04;21.20;;;11.40;;
66175;SDS011;52977;44.816;20.538;2023-03-07T05:55:30;24.60;;;10.23;;
66175;SDS011;52977;44.816;20.538;2023-03-07T05:57:57;22.95;;;9.30;;
66175;SDS011;52977;44.816;20.538;2023-03-07T06:00:22;28.50;;;10.48;;
66175;SDS011;52977;44.816;20.538;2023-03-07T06:02:54;24.05;;;9.95;;
66175;SDS011;52977;44.816;20.538;2023-03-07T06:05:20;25.70;;;10.95;;
66175;SDS011;52977;44.816;20.538;2023-03-07T06:07:47;28.48;;;12.40;;
66175;SDS011;52977;44.816;20.538;2023-03-07T06:10:14;24.83;;;11.50;;
66175;SDS011;52977;44.816;20.538;2023-03-07T06:12:41;28.38;;;12.25;;
66175;SDS011;52977;44.816;20.538;2023-03-07T06:15:07;26.17;;;11.18;;
66175;SDS011;52977;44.816;20.538;2023-03-07T06:17:34;28.33;;;10.88;;
66175;SDS011;52977;44.816;20.538;2023-03-07T06:20:02;26.75;;;11.82;;
66175;SDS011;52977;44.816;20.538;2023-03-07T06:22:28;27.23;;;11.57;;
66175;SDS011;52977;44.816;20.538;2023-03-07T06:24:57;26.50;;;11.98;;
66175;SDS011;52977;44.816;20.538;2023-03-07T06:27:24;28.08;;;11.35;;
66175;SDS011;52977;44.816;20.538;2023-03-07T06:29:51;26.27;;;12.15;;
66175;SDS011;52977;44.816;20.538;2023-03-07T06:32:17;28.25;;;11.93;;
66175;SDS011;52977;44.816;20.538;2023-03-07T06:34:43;30.23;;;13.98;;
66175;SDS011;52977;44.816;20.538;2023-03-07T06:37:10;27.65;;;13.48;;
66175;SDS011;52977;44.816;20.538;2023-03-07T06:39:36;36.17;;;14.20;;
66175;SDS011;52977;44.816;20.538;2023-03-07T06:42:04;32.33;;;13.90;;
66175;SDS011;52977;44.816;20.538;2023-03-07T06:44:30;32.35;;;12.85;;
66175;SDS011;52977;44.816;20.538;2023-03-07T06:46:56;33.88;;;13.63;;
66175;SDS011;52977;44.816;20.538;2023-03-07T06:49:22;29.35;;;13.27;;
66175;SDS011;52977;44.816;20.538;2023-03-07T06:51:48;32.10;;;13.73;;
66175;SDS011;52977;44.816;20.538;2023-03-07T06:54:14;33.40;;;13.98;;
66175;SDS011;52977;44.816;20.538;2023-03-07T06:56:40;36.80;;;13.63;;
66175;SDS011;52977;44.816;20.538;2023-03-07T06:59:06;31.02;;;14.75;;
66175;SDS011;52977;44.816;20.538;2023-03-07T07:01:31;31.45;;;13.77;;
66175;SDS011;52977;44.816;20.538;2023-03-07T07:04:00;35.38;;;15.77;;
66175;SDS011;52977;44.816;20.538;2023-03-07T07:06:28;34.30;;;15.70;;
66175;SDS011;52977;44.816;20.538;2023-03-07T07:08:55;33.45;;;14.23;;
66175;SDS011;52977;44.816;20.538;2023-03-07T07:11:24;29.30;;;12.50;;
66175;SDS011;52977;44.816;20.538;2023-03-07T07:13:51;28.80;;;13.05;;
66175;SDS011;52977;44.816;20.538;2023-03-07T07:16:18;32.75;;;13.15;;
66175;SDS011;52977;44.816;20.538;2023-03-07T07:18:44;28.50;;;13.75;;
66175;SDS011;52977;44.816;20.538;2023-03-07T07:21:10;28.70;;;13.15;;
66175;SDS011;52977;44.816;20.538;2023-03-07T07:23:37;31.25;;;12.95;;
66175;SDS011;52977;44.816;20.538;2023-03-07T07:26:04;31.80;;;13.15;;
66175;SDS011;52977;44.816;20.538;2023-03-07T07:28:30;34.42;;;13.25;;
66175;SDS011;52977;44.816;20.538;2023-03-07T07:30:56;28.63;;;12.68;;
66175;SDS011;52977;44.816;20.538;2023-03-07T07:33:22;32.00;;;13.55;;
66175;SDS011;52977;44.816;20.538;2023-03-07T07:35:49;32.35;;;14.18;;
66175;SDS011;52977;44.816;20.538;2023-03-07T07:38:15;32.03;;;12.88;;
66175;SDS011;52977;44.816;20.538;2023-03-07T07:40:41;32.50;;;12.93;;
66175;SDS011;52977;44.816;20.538;2023-03-07T07:43:13;28.83;;;12.27;;
66175;SDS011;52977;44.816;20.538;2023-03-07T07:45:56;28.02;;;12.88;;
66175;SDS011;52977;44.816;20.538;2023-03-07T07:48:23;29.92;;;13.50;;
66175;SDS011;52977;44.816;20.538;2023-03-07T07:50:50;28.00;;;12.85;;
66175;SDS011;52977;44.816;20.538;2023-03-07T07:53:18;26.00;;;12.80;;
66175;SDS011;52977;44.816;20.538;2023-03-07T07:55:45;27.92;;;12.13;;
66175;SDS011;52977;44.816;20.538;2023-03-07T07:58:13;29.10;;;12.55;;
66175;SDS011;52977;44.816;20.538;2023-03-07T08:00:39;33.85;;;15.13;;
66175;SDS011;52977;44.816;20.538;2023-03-07T08:03:06;33.42;;;14.35;;
66175;SDS011;52977;44.816;20.538;2023-03-07T08:05:31;31.88;;;15.25;;
66175;SDS011;52977;44.816;20.538;2023-03-07T08:07:57;31.17;;;12.35;;
66175;SDS011;52977;44.816;20.538;2023-03-07T08:10:24;36.42;;;14.95;;
66175;SDS011;52977;44.816;20.538;2023-03-07T08:12:50;27.08;;;12.25;;
66175;SDS011;52977;44.816;20.538;2023-03-07T08:15:19;29.27;;;13.27;;
66175;SDS011;52977;44.816;20.538;2023-03-07T08:17:48;30.52;;;13.75;;
66175;SDS011;52977;44.816;20.538;2023-03-07T08:20:18;27.48;;;13.13;;
66175;SDS011;52977;44.816;20.538;2023-03-07T08:22:47;27.55;;;11.82;;
66175;SDS011;52977;44.816;20.538;2023-03-07T08:25:16;32.55;;;12.18;;
66175;SDS011;52977;44.816;20.538;2023-03-07T08:27:45;26.58;;;10.93;;
66175;SDS011;52977;44.816;20.538;2023-03-07T08:30:11;26.65;;;11.80;;
66175;SDS011;52977;44.816;20.538;2023-03-07T08:32:38;25.05;;;11.68;;
66175;SDS011;52977;44.816;20.538;2023-03-07T08:35:04;22.77;;;10.95;;
66175;SDS011;52977;44.816;20.538;2023-03-07T08:37:31;24.85;;;10.60;;
66175;SDS011;52977;44.816;20.538;2023-03-07T08:39:57;27.73;;;10.40;;
66175;SDS011;52977;44.816;20.538;2023-03-07T08:42:23;22.85;;;9.73;;
66175;SDS011;52977;44.816;20.538;2023-03-07T08:44:50;20.02;;;9.40;;
66175;SDS011;52977;44.816;20.538;2023-03-07T08:47:16;21.92;;;9.43;;
66175;SDS011;52977;44.816;20.538;2023-03-07T08:49:41;22.83;;;9.55;;
66175;SDS011;52977;44.816;20.538;2023-03-07T08:52:08;18.20;;;9.45;;
66175;SDS011;52977;44.816;20.538;2023-03-07T08:54:34;18.05;;;7.75;;
66175;SDS011;52977;44.816;20.538;2023-03-07T08:57:00;19.92;;;8.38;;
66175;SDS011;52977;44.816;20.538;2023-03-07T08:59:26;20.70;;;8.45;;
66175;SDS011;52977;44.816;20.538;2023-03-07T09:01:53;24.80;;;10.05;;
66175;SDS011;52977;44.816;20.538;2023-03-07T09:04:20;22.83;;;9.13;;
66175;SDS011;52977;44.816;20.538;2023-03-07T09:06:46;20.50;;;8.85;;
66175;SDS011;52977;44.816;20.538;2023-03-07T09:09:13;16.30;;;8.45;;
66175;SDS011;52977;44.816;20.538;2023-03-07T09:11:39;20.15;;;8.88;;
66175;SDS011;52977;44.816;20.538;2023-03-07T09:14:06;21.17;;;8.82;;
66175;SDS011;52977;44.816;20.538;2023-03-07T09:16:32;19.52;;;8.55;;
66175;SDS011;52977;44.816;20.538;2023-03-07T09:18:58;18.38;;;8.57;;
66175;SDS011;52977;44.816;20.538;2023-03-07T09:21:24;23.48;;;9.50;;
66175;SDS011;52977;44.816;20.538;2023-03-07T09:23:50;19.15;;;8.57;;
66175;SDS011;52977;44.816;20.538;2023-03-07T09:26:16;21.65;;;8.50;;
66175;SDS011;52977;44.816;20.538;2023-03-07T09:28:42;27.33;;;10.00;;
66175;SDS011;52977;44.816;20.538;2023-03-07T09:31:10;21.65;;;10.20;;
66175;SDS011;52977;44.816;20.538;2023-03-07T09:33:38;18.45;;;8.02;;
66175;SDS011;52977;44.816;20.538;2023-03-07T09:36:06;21.08;;;9.13;;
66175;SDS011;52977;44.816;20.538;2023-03-07T09:38:34;19.63;;;8.80;;
66175;SDS011;52977;44.816;20.538;2023-03-07T09:41:03;20.60;;;9.27;;
66175;SDS011;52977;44.816;20.538;2023-03-07T09:43:36;19.23;;;8.63;;
66175;SDS011;52977;44.816;20.538;2023-03-07T09:46:41;19.02;;;8.60;;
66175;SDS011;52977;44.816;20.538;2023-03-07T09:49:20;18.27;;;8.18;;
66175;SDS011;52977;44.816;20.538;2023-03-07T09:51:57;16.92;;;8.02;;
66175;SDS011;52977;44.816;20.538;2023-03-07T09:54:26;15.18;;;6.28;;
66175;SDS011;52977;44.816;20.538;2023-03-07T09:56:57;21.17;;;6.50;;
66175;SDS011;52977;44.816;20.538;2023-03-07T09:59:41;17.98;;;7.65;;
66175;SDS011;52977;44.816;20.538;2023-03-07T10:02:15;14.77;;;6.70;;
66175;SDS011;52977;44.816;20.538;2023-03-07T10:07:36;18.13;;;7.82;;
66175;SDS011;52977;44.816;20.538;2023-03-07T10:10:09;21.65;;;8.57;;
66175;SDS011;52977;44.816;20.538;2023-03-07T10:15:17;19.73;;;8.32;;
66175;SDS011;52977;44.816;20.538;2023-03-07T10:17:59;15.15;;;6.63;;
66175;SDS011;52977;44.816;20.538;2023-03-07T10:26:22;15.45;;;7.28;;
66175;SDS011;52977;44.816;20.538;2023-03-07T10:28:48;18.15;;;7.70;;
66175;SDS011;52977;44.816;20.538;2023-03-07T10:31:28;17.55;;;7.65;;
66175;SDS011;52977;44.816;20.538;2023-03-07T10:33:59;18.38;;;8.02;;
66175;SDS011;52977;44.816;20.538;2023-03-07T10:37:18;16.92;;;8.05;;
66175;SDS011;52977;44.816;20.538;2023-03-07T10:39:33;15.32;;;8.02;;
66175;SDS011;52977;44.816;20.538;2023-03-07T10:42:12;19.50;;;7.90;;
66175;SDS011;52977;44.816;20.538;2023-03-07T10:44:41;14.57;;;7.30;;
66175;SDS011;52977;44.816;20.538;2023-03-07T10:47:13;16.88;;;7.78;;
66175;SDS011;52977;44.816;20.538;2023-03-07T10:49:48;17.35;;;7.70;;
66175;SDS011;52977;44.816;20.538;2023-03-07T10:58:13;17.98;;;8.10;;
66175;SDS011;52977;44.816;20.538;2023-03-07T11:00:57;14.35;;;7.10;;
66175;SDS011;52977;44.816;20.538;2023-03-07T11:09:13;14.45;;;6.95;;
66175;SDS011;52977;44.816;20.538;2023-03-07T11:11:55;19.13;;;7.68;;
66175;SDS011;52977;44.816;20.538;2023-03-07T11:14:23;14.38;;;6.20;;
66175;SDS011;52977;44.816;20.538;2023-03-07T11:16:55;20.52;;;8.05;;
66175;SDS011;52977;44.816;20.538;2023-03-07T11:21:56;18.13;;;8.35;;
66175;SDS011;52977;44.816;20.538;2023-03-07T11:26:55;12.80;;;6.30;;
66175;SDS011;52977;44.816;20.538;2023-03-07T11:29:23;16.50;;;7.00;;
66175;SDS011;52977;44.816;20.538;2023-03-07T11:34:52;18.77;;;7.75;;
66175;SDS011;52977;44.816;20.538;2023-03-07T11:40:08;18.95;;;7.47;;
66175;SDS011;52977;44.816;20.538;2023-03-07T11:42:40;13.25;;;6.18;;
66175;SDS011;52977;44.816;20.538;2023-03-07T11:45:20;19.98;;;7.88;;
66175;SDS011;52977;44.816;20.538;2023-03-07T11:50:29;15.50;;;7.15;;
66175;SDS011;52977;44.816;20.538;2023-03-07T11:55:32;15.70;;;7.57;;
66175;SDS011;52977;44.816;20.538;2023-03-07T12:01:19;16.05;;;6.45;;
66175;SDS011;52977;44.816;20.538;2023-03-07T12:06:21;17.48;;;7.15;;
66175;SDS011;52977;44.816;20.538;2023-03-07T12:19:51;13.65;;;5.00;;
66175;SDS011;52977;44.816;20.538;2023-03-07T12:27:37;10.35;;;4.40;;
66175;SDS011;52977;44.816;20.538;2023-03-07T12:30:23;10.45;;;4.40;;
66175;SDS011;52977;44.816;20.538;2023-03-07T12:32:52;9.57;;;4.22;;
66175;SDS011;52977;44.816;20.538;2023-03-07T12:37:51;9.07;;;3.97;;
66175;SDS011;52977;44.816;20.538;2023-03-07T12:40:34;11.40;;;4.60;;
66175;SDS011;52977;44.816;20.538;2023-03-07T12:43:48;8.82;;;3.90;;
66175;SDS011;52977;44.816;20.538;2023-03-07T12:46:06;8.05;;;3.58;;
66175;SDS011;52977;44.816;20.538;2023-03-07T12:48:47;8.35;;;3.28;;
66175;SDS011;52977;44.816;20.538;2023-03-07T12:51:22;9.00;;;3.35;;
66175;SDS011;52977;44.816;20.538;2023-03-07T12:54:02;8.10;;;3.50;;
66175;SDS011;52977;44.816;20.538;2023-03-07T12:59:18;12.15;;;3.65;;
66175;SDS011;52977;44.816;20.538;2023-03-07T13:09:51;10.35;;;3.40;;
66175;SDS011;52977;44.816;20.538;2023-03-07T13:14:55;9.55;;;3.25;;
66175;SDS011;52977;44.816;20.538;2023-03-07T13:45:51;10.98;;;3.35;;
66175;SDS011;52977;44.816;20.538;2023-03-07T13:55:59;8.85;;;3.67;;
66175;SDS011;52977;44.816;20.538;2023-03-07T13:58:37;8.60;;;3.40;;
66175;SDS011;52977;44.816;20.538;2023-03-07T14:01:18;12.25;;;3.90;;
66175;SDS011;52977;44.816;20.538;2023-03-07T14:06:40;12.10;;;3.63;;
66175;SDS011;52977;44.816;20.538;2023-03-07T14:09:13;11.93;;;4.15;;
66175;SDS011;52977;44.816;20.538;2023-03-07T14:17:13;9.30;;;3.63;;
66175;SDS011;52977;44.816;20.538;2023-03-07T14:22:30;11.45;;;4.78;;
66175;SDS011;52977;44.816;20.538;2023-03-07T14:25:13;9.93;;;3.80;;
66175;SDS011;52977;44.816;20.538;2023-03-07T14:27:49;9.85;;;4.07;;
66175;SDS011;52977;44.816;20.538;2023-03-07T14:30:21;10.05;;;4.72;;
66175;SDS011;52977;44.816;20.538;2023-03-07T14:32:49;8.63;;;3.95;;
66175;SDS011;52977;44.816;20.538;2023-03-07T14:38:03;8.43;;;3.97;;
66175;SDS011;52977;44.816;20.538;2023-03-07T14:40:38;9.47;;;3.80;;
66175;SDS011;52977;44.816;20.538;2023-03-07T14:45:41;9.48;;;3.35;;
66175;SDS011;52977;44.816;20.538;2023-03-07T14:51:24;6.53;;;3.22;;
66175;SDS011;52977;44.816;20.538;2023-03-07T14:53:52;9.90;;;3.25;;
66175;SDS011;52977;44.816;20.538;2023-03-07T14:56:22;8.48;;;3.72;;
66175;SDS011;52977;44.816;20.538;2023-03-07T14:58:55;7.03;;;3.42;;
66175;SDS011;52977;44.816;20.538;2023-03-07T15:01:32;9.23;;;3.40;;
66175;SDS011;52977;44.816;20.538;2023-03-07T15:04:01;7.75;;;3.45;;
66175;SDS011;52977;44.816;20.538;2023-03-07T15:06:40;10.75;;;3.88;;
66175;SDS011;52977;44.816;20.538;2023-03-07T15:09:08;10.45;;;4.10;;
66175;SDS011;52977;44.816;20.538;2023-03-07T15:11:41;10.60;;;4.28;;
66175;SDS011;52977;44.816;20.538;2023-03-07T15:14:16;8.35;;;3.85;;
66175;SDS011;52977;44.816;20.538;2023-03-07T15:16:48;14.23;;;4.68;;
66175;SDS011;52977;44.816;20.538;2023-03-07T15:19:17;13.63;;;4.95;;
66175;SDS011;52977;44.816;20.538;2023-03-07T15:21:52;13.20;;;4.95;;
66175;SDS011;52977;44.816;20.538;2023-03-07T15:26:53;12.10;;;4.13;;
66175;SDS011;52977;44.816;20.538;2023-03-07T15:29:27;11.43;;;4.25;;
66175;SDS011;52977;44.816;20.538;2023-03-07T15:31:56;12.25;;;4.60;;
66175;SDS011;52977;44.816;20.538;2023-03-07T15:34:33;12.85;;;4.60;;
66175;SDS011;52977;44.816;20.538;2023-03-07T15:42:20;12.85;;;4.82;;
66175;SDS011;52977;44.816;20.538;2023-03-07T15:44:59;9.48;;;4.60;;
66175;SDS011;52977;44.816;20.538;2023-03-07T15:47:29;15.95;;;5.80;;
66175;SDS011;52977;44.816;20.538;2023-03-07T15:50:00;12.95;;;6.00;;
66175;SDS011;52977;44.816;20.538;2023-03-07T15:52:29;12.48;;;5.90;;
66175;SDS011;52977;44.816;20.538;2023-03-07T15:55:03;12.50;;;5.70;;
66175;SDS011;52977;44.816;20.538;2023-03-07T15:57:49;13.20;;;4.90;;
66175;SDS011;52977;44.816;20.538;2023-03-07T16:00:18;11.77;;;5.63;;
66175;SDS011;52977;44.816;20.538;2023-03-07T16:02:47;24.20;;;8.18;;
66175;SDS011;52977;44.816;20.538;2023-03-07T16:07:48;18.08;;;7.18;;
66175;SDS011;52977;44.816;20.538;2023-03-07T16:10:16;17.92;;;7.55;;
66175;SDS011;52977;44.816;20.538;2023-03-07T16:12:43;17.63;;;6.93;;
66175;SDS011;52977;44.816;20.538;2023-03-07T16:15:17;14.02;;;6.45;;
66175;SDS011;52977;44.816;20.538;2023-03-07T16:17:45;16.27;;;6.97;;
66175;SDS011;52977;44.816;20.538;2023-03-07T16:20:18;16.20;;;7.10;;
66175;SDS011;52977;44.816;20.538;2023-03-07T16:22:47;15.15;;;6.55;;
66175;SDS011;52977;44.816;20.538;2023-03-07T16:25:13;13.75;;;6.13;;
66175;SDS011;52977;44.816;20.538;2023-03-07T16:27:43;14.57;;;6.50;;
66175;SDS011;52977;44.816;20.538;2023-03-07T16:30:16;13.30;;;6.40;;
66175;SDS011;52977;44.816;20.538;2023-03-07T16:32:44;11.98;;;5.70;;
66175;SDS011;52977;44.816;20.538;2023-03-07T16:37:44;13.18;;;5.70;;
66175;SDS011;52977;44.816;20.538;2023-03-07T16:40:11;10.98;;;5.30;;
66175;SDS011;52977;44.816;20.538;2023-03-07T16:42:40;14.02;;;5.68;;
66175;SDS011;52977;44.816;20.538;2023-03-07T16:45:18;11.75;;;5.05;;
66175;SDS011;52977;44.816;20.538;2023-03-07T16:47:46;16.35;;;4.95;;
66175;SDS011;52977;44.816;20.538;2023-03-07T16:50:15;16.70;;;5.47;;
66175;SDS011;52977;44.816;20.538;2023-03-07T16:52:43;13.30;;;5.57;;
66175;SDS011;52977;44.816;20.538;2023-03-07T16:55:12;15.80;;;6.25;;
66175;SDS011;52977;44.816;20.538;2023-03-07T16:57:40;17.10;;;7.60;;
66175;SDS011;52977;44.816;20.538;2023-03-07T17:00:11;14.27;;;6.60;;
66175;SDS011;52977;44.816;20.538;2023-03-07T17:02:40;19.75;;;7.53;;
66175;SDS011;52977;44.816;20.538;2023-03-07T17:05:12;17.65;;;7.97;;
66175;SDS011;52977;44.816;20.538;2023-03-07T17:07:40;19.27;;;8.80;;
66175;SDS011;52977;44.816;20.538;2023-03-07T17:10:06;23.42;;;10.40;;